METAR Data
IDs: Format: Raw Decoded Include TAF

Data at: 0621 UTC 01 Aug 2021

UUMO 010600Z 18003MPS 150V220 CAVOK 23/14 Q1011 R25/090060 NOSIG RMK QFE743/0991